createdAt,value
2018-03-23T00:01:40.541Z,24.63
2018-03-23T00:04:08.165Z,27.23
2018-03-23T00:06:35.790Z,27.20
2018-03-23T00:09:03.427Z,24.37
2018-03-23T00:11:31.049Z,27.23
2018-03-23T00:13:58.654Z,24.40
2018-03-23T00:16:26.303Z,26.00
2018-03-23T00:18:53.979Z,23.77
2018-03-23T00:21:21.646Z,24.43
2018-03-23T00:23:49.276Z,26.17
2018-03-23T00:26:16.884Z,27.23
2018-03-23T00:28:45.327Z,29.03
2018-03-23T00:31:12.951Z,24.90
2018-03-23T00:33:40.560Z,24.40
2018-03-23T00:36:08.212Z,27.30
2018-03-23T00:38:36.004Z,20.37
2018-03-23T00:41:04.403Z,18.23
2018-03-23T00:43:32.799Z,16.90
2018-03-23T00:46:00.502Z,19.63
2018-03-23T00:48:29.998Z,18.07
2018-03-23T00:50:58.226Z,20.13
2018-03-23T00:53:26.443Z,16.40
2018-03-23T00:55:54.103Z,20.50
2018-03-23T00:58:21.789Z,18.17
2018-03-23T01:00:49.408Z,18.27
2018-03-23T01:03:16.997Z,16.33
2018-03-23T01:05:44.675Z,16.07
2018-03-23T01:08:12.308Z,15.03
2018-03-23T01:10:39.947Z,15.63
2018-03-23T01:13:07.652Z,15.97
2018-03-23T01:15:35.298Z,17.80
2018-03-23T01:18:02.957Z,17.90
2018-03-23T01:20:30.713Z,18.17
2018-03-23T01:22:58.367Z,16.40
2018-03-23T01:25:26.048Z,18.83
2018-03-23T01:27:53.772Z,18.93
2018-03-23T01:30:21.409Z,18.17
2018-03-23T01:32:49.868Z,19.20
2018-03-23T01:35:17.533Z,17.53
2018-03-23T01:37:45.936Z,18.60
2018-03-23T01:40:13.585Z,18.03
2018-03-23T01:42:41.953Z,20.43
2018-03-23T01:45:10.322Z,21.00
2018-03-23T01:47:38.259Z,18.23
2018-03-23T01:50:05.951Z,21.97
2018-03-23T01:52:33.554Z,19.63
2018-03-23T01:55:01.222Z,20.27
2018-03-23T01:57:28.897Z,21.03
2018-03-23T01:59:57.126Z,18.27
2018-03-23T02:02:25.613Z,19.90
2018-03-23T02:04:53.974Z,18.50
2018-03-23T02:07:21.578Z,20.13
2018-03-23T02:09:49.203Z,18.47
2018-03-23T02:12:17.558Z,18.27
2018-03-23T02:14:45.147Z,18.93
2018-03-23T02:17:13.643Z,21.40
2018-03-23T02:19:41.250Z,20.27
2018-03-23T02:22:09.658Z,19.37
2018-03-23T02:24:38.590Z,20.10
2018-03-23T02:27:06.279Z,21.67
2018-03-23T02:29:43.244Z,19.00
2018-03-23T02:32:13.115Z,20.40
2018-03-23T02:34:40.738Z,20.33
2018-03-23T02:37:08.358Z,19.83
2018-03-23T02:39:35.959Z,20.80
2018-03-23T02:42:03.590Z,19.47
2018-03-23T02:44:31.195Z,20.23
2018-03-23T02:46:59.561Z,21.53
2018-03-23T02:49:27.182Z,17.57
2018-03-23T02:51:54.809Z,18.50
2018-03-23T02:54:23.162Z,20.83
2018-03-23T02:56:50.754Z,17.97
2018-03-23T02:59:18.399Z,19.97
2018-03-23T03:01:46.799Z,20.17
2018-03-23T03:04:14.394Z,19.83
2018-03-23T03:06:41.987Z,18.93
2018-03-23T03:09:10.386Z,20.83
2018-03-23T03:11:37.983Z,21.37
2018-03-23T03:14:05.582Z,22.03
2018-03-23T03:16:33.974Z,19.73
2018-03-23T03:19:02.354Z,18.37
2018-03-23T03:21:30.721Z,20.03
2018-03-23T03:23:59.328Z,21.20
2018-03-23T03:26:26.918Z,21.40
2018-03-23T03:28:54.519Z,19.10
2018-03-23T03:31:22.926Z,19.03
2018-03-23T03:33:51.521Z,20.17
2018-03-23T03:36:19.166Z,20.57
2018-03-23T03:38:46.797Z,20.83
2018-03-23T03:41:15.153Z,19.50
2018-03-23T03:43:42.767Z,18.77
2018-03-23T03:46:10.390Z,20.23
2018-03-23T03:48:37.986Z,17.70
2018-03-23T03:51:05.595Z,17.50
2018-03-23T03:53:33.231Z,18.50
2018-03-23T03:56:00.818Z,16.93
2018-03-23T03:58:28.455Z,18.50
2018-03-23T04:00:56.086Z,19.00
2018-03-23T04:03:24.292Z,19.93
2018-03-23T04:05:51.874Z,16.87
2018-03-23T04:08:20.268Z,18.30
2018-03-23T04:10:48.637Z,15.00
2018-03-23T04:13:16.242Z,16.43
2018-03-23T04:15:44.236Z,17.97
2018-03-23T04:18:11.850Z,16.27
2018-03-23T04:20:40.194Z,18.23
2018-03-23T04:23:08.628Z,17.40
2018-03-23T04:25:36.230Z,17.53
2018-03-23T04:28:03.813Z,16.13
2018-03-23T04:30:33.134Z,14.80
2018-03-23T04:33:00.752Z,15.67
2018-03-23T04:35:28.380Z,17.30
2018-03-23T04:37:55.982Z,16.67
2018-03-23T04:40:23.577Z,15.20
2018-03-23T04:42:51.670Z,15.33
2018-03-23T04:45:19.259Z,17.40
2018-03-23T04:47:46.842Z,15.63
2018-03-23T04:50:15.227Z,17.83
2018-03-23T04:52:43.857Z,16.93
2018-03-23T04:55:11.440Z,21.93
2018-03-23T04:57:39.076Z,15.77
2018-03-23T05:00:07.358Z,16.73
2018-03-23T05:02:34.942Z,15.17
2018-03-23T05:05:02.574Z,16.97
2018-03-23T05:07:30.158Z,15.80
2018-03-23T05:09:57.743Z,16.23
2018-03-23T05:12:26.151Z,18.30
2018-03-23T05:14:53.758Z,15.97
2018-03-23T05:17:21.352Z,16.47
2018-03-23T05:19:48.982Z,15.73
2018-03-23T05:22:16.576Z,15.63
2018-03-23T05:24:44.182Z,15.33
2018-03-23T05:27:12.706Z,16.83
2018-03-23T05:29:41.062Z,16.43
2018-03-23T05:32:08.649Z,16.43
2018-03-23T05:34:36.317Z,17.07
2018-03-23T05:37:03.918Z,17.13
2018-03-23T05:39:31.565Z,18.57
2018-03-23T05:41:59.174Z,17.13
2018-03-23T05:44:27.552Z,18.03
2018-03-23T05:46:55.937Z,16.13
2018-03-23T05:49:24.316Z,19.93
2018-03-23T05:51:52.847Z,16.97
2018-03-23T05:54:20.465Z,18.73
2018-03-23T05:56:48.834Z,19.67
2018-03-23T05:59:17.209Z,18.50
2018-03-23T06:01:45.593Z,19.73
2018-03-23T06:04:13.951Z,20.63
2018-03-23T06:06:41.545Z,19.27
2018-03-23T06:09:09.183Z,20.87
2018-03-23T06:11:37.542Z,17.73
2018-03-23T06:14:05.135Z,18.87
2018-03-23T06:16:32.993Z,18.37
2018-03-23T06:19:01.410Z,19.37
2018-03-23T06:21:29.006Z,19.10
2018-03-23T06:23:56.627Z,18.33
2018-03-23T06:26:24.258Z,18.60
2018-03-23T06:28:52.028Z,20.47
2018-03-23T06:31:19.618Z,19.27
2018-03-23T06:33:47.280Z,16.50
2018-03-23T06:36:14.901Z,18.80
2018-03-23T06:38:42.487Z,19.27
2018-03-23T06:41:10.102Z,17.70
2018-03-23T06:43:38.463Z,17.77
2018-03-23T06:46:06.087Z,20.97
2018-03-23T06:48:33.774Z,20.17
2018-03-23T06:51:01.396Z,19.27
2018-03-23T06:53:29.029Z,22.17
2018-03-23T06:55:57.410Z,19.57
2018-03-23T06:58:25.772Z,21.87
2018-03-23T07:00:54.820Z,20.03
2018-03-23T07:03:22.410Z,21.03
2018-03-23T07:05:50.025Z,21.63
2018-03-23T07:08:17.664Z,21.33
2018-03-23T07:10:46.011Z,22.63
2018-03-23T07:13:13.631Z,21.73
2018-03-23T07:15:41.295Z,21.23
2018-03-23T07:18:08.886Z,19.00
2018-03-23T07:20:36.489Z,24.30
2018-03-23T07:23:04.101Z,19.13
2018-03-23T07:25:31.867Z,21.27
2018-03-23T07:27:59.479Z,20.07
2018-03-23T07:30:27.802Z,20.50
2018-03-23T07:32:55.443Z,20.67
2018-03-23T07:35:23.038Z,18.47
2018-03-23T07:37:51.812Z,19.03
2018-03-23T07:40:20.284Z,21.03
2018-03-23T07:42:48.235Z,18.73
2018-03-23T07:45:15.828Z,23.93
2018-03-23T07:47:43.436Z,29.63
2018-03-23T07:50:11.062Z,20.07
2018-03-23T07:52:39.421Z,20.63
2018-03-23T07:55:07.838Z,17.47
2018-03-23T07:57:35.466Z,20.27
2018-03-23T08:00:03.123Z,19.93
2018-03-23T08:02:30.706Z,20.17
2018-03-23T08:04:59.117Z,20.07
2018-03-23T08:07:26.965Z,22.23
2018-03-23T08:09:54.578Z,22.57
2018-03-23T08:12:22.208Z,19.07
2018-03-23T08:14:50.239Z,24.47
2018-03-23T08:17:18.272Z,19.53
2018-03-23T08:19:45.865Z,21.50
2018-03-23T08:22:14.352Z,18.60
2018-03-23T08:24:44.234Z,21.30
2018-03-23T08:27:14.086Z,19.77
2018-03-23T08:29:41.845Z,19.97
2018-03-23T08:32:10.222Z,18.23
2018-03-23T08:34:41.825Z,18.90
2018-03-23T08:37:09.438Z,18.47
2018-03-23T08:39:37.058Z,19.40
2018-03-23T08:42:04.726Z,18.63
2018-03-23T08:44:33.112Z,18.33
2018-03-23T08:47:00.694Z,17.47
2018-03-23T08:49:29.116Z,18.27
2018-03-23T08:51:57.887Z,22.20
2018-03-23T08:54:25.536Z,18.00
2018-03-23T08:56:53.161Z,17.57
2018-03-23T08:59:20.803Z,19.93
2018-03-23T09:01:50.329Z,17.53
2018-03-23T09:04:17.960Z,20.43
2018-03-23T09:06:45.607Z,17.90
2018-03-23T09:09:13.417Z,21.57
2018-03-23T09:11:42.024Z,19.90
2018-03-23T09:14:09.663Z,18.03
2018-03-23T09:16:38.076Z,17.73
2018-03-23T09:19:05.663Z,20.63
2018-03-23T09:21:34.267Z,20.20
2018-03-23T09:24:03.562Z,20.30
2018-03-23T09:26:32.715Z,17.43
2018-03-23T09:29:00.360Z,18.97
2018-03-23T09:31:28.000Z,15.60
2018-03-23T09:33:56.361Z,17.77
2018-03-23T09:36:23.988Z,15.93
2018-03-23T09:38:54.188Z,18.00
2018-03-23T09:41:21.852Z,26.17
2018-03-23T09:43:50.114Z,17.27
2018-03-23T09:46:17.738Z,19.37
2018-03-23T09:48:45.352Z,21.23
2018-03-23T09:51:13.010Z,29.20
2018-03-23T09:53:40.629Z,28.33
2018-03-23T09:56:08.236Z,18.87
2018-03-23T09:58:35.856Z,20.90
2018-03-23T10:01:04.226Z,22.50
2018-03-23T10:03:32.201Z,22.50
2018-03-23T10:05:59.818Z,22.47
2018-03-23T10:08:27.471Z,23.13
2018-03-23T10:10:55.206Z,20.13
2018-03-23T10:13:23.665Z,22.87
2018-03-23T10:15:52.226Z,29.50
2018-03-23T10:18:20.010Z,22.93
2018-03-23T10:20:48.452Z,20.60
2018-03-23T10:23:16.083Z,21.43
2018-03-23T10:25:43.710Z,18.70
2018-03-23T10:28:12.071Z,21.93
2018-03-23T10:30:40.499Z,18.87
2018-03-23T10:33:08.326Z,22.83
2018-03-23T10:35:36.677Z,20.60
2018-03-23T10:38:04.283Z,20.57
2018-03-23T10:40:31.944Z,22.30
2018-03-23T10:43:00.331Z,19.90
2018-03-23T10:45:27.950Z,20.10
2018-03-23T10:47:55.547Z,19.27
2018-03-23T10:50:24.084Z,22.10
2018-03-23T10:52:51.710Z,19.13
2018-03-23T10:55:19.314Z,21.77
2018-03-23T10:57:47.723Z,20.87
2018-03-23T11:00:18.109Z,20.40
2018-03-23T11:02:52.424Z,20.73
2018-03-23T11:05:20.095Z,22.43
2018-03-23T11:07:47.784Z,20.97
2018-03-23T11:10:15.399Z,19.73
2018-03-23T11:12:43.027Z,18.03
2018-03-23T11:15:10.663Z,17.63
2018-03-23T11:17:39.010Z,19.67
2018-03-23T11:20:06.646Z,20.13
2018-03-23T11:22:34.309Z,20.13
2018-03-23T11:25:01.908Z,21.10
2018-03-23T11:27:30.346Z,23.90
2018-03-23T11:29:58.602Z,20.10
2018-03-23T11:32:26.212Z,24.00
2018-03-23T11:34:54.659Z,20.50
2018-03-23T11:37:22.340Z,20.53
2018-03-23T11:39:50.009Z,17.57
2018-03-23T11:42:17.648Z,21.67
2018-03-23T11:44:45.306Z,21.67
2018-03-23T11:47:12.927Z,16.03
2018-03-23T11:49:40.538Z,19.70
2018-03-23T11:52:08.266Z,19.40
2018-03-23T11:54:35.891Z,20.37
2018-03-23T11:57:04.384Z,17.33
2018-03-23T11:59:31.999Z,18.27
2018-03-23T12:01:59.682Z,17.63
2018-03-23T12:04:27.347Z,17.17
2018-03-23T12:06:54.943Z,17.00
2018-03-23T12:09:22.626Z,17.57
2018-03-23T12:11:50.220Z,15.67
2018-03-23T12:14:17.914Z,16.83
2018-03-23T12:16:45.507Z,16.80
2018-03-23T12:19:13.103Z,18.77
2018-03-23T12:21:40.754Z,17.87
2018-03-23T12:24:08.430Z,18.53
2018-03-23T12:26:36.827Z,16.20
2018-03-23T12:29:04.497Z,19.80
2018-03-23T12:31:32.138Z,16.60
2018-03-23T12:34:00.525Z,19.80
2018-03-23T12:36:29.430Z,17.67
2018-03-23T12:38:57.058Z,15.30
2018-03-23T12:41:24.696Z,14.83
2018-03-23T12:43:53.920Z,16.80
2018-03-23T12:46:22.323Z,15.93
2018-03-23T12:48:49.938Z,15.67
2018-03-23T12:51:17.528Z,17.37
2018-03-23T12:53:45.193Z,16.20
2018-03-23T12:56:13.645Z,15.37
2018-03-23T12:58:41.256Z,15.53
2018-03-23T13:01:09.027Z,16.10
2018-03-23T13:03:36.674Z,15.37
2018-03-23T13:06:04.342Z,15.97
2018-03-23T13:08:31.953Z,14.63
2018-03-23T13:10:59.613Z,14.17
2018-03-23T13:13:27.222Z,14.10
2018-03-23T13:15:54.876Z,14.73
2018-03-23T13:18:22.531Z,17.07
2018-03-23T13:20:50.142Z,14.07
2018-03-23T13:23:17.743Z,16.73
2018-03-23T13:25:45.373Z,15.30
2018-03-23T13:28:13.004Z,17.20
2018-03-23T13:30:40.626Z,16.83
2018-03-23T13:33:08.273Z,15.13
2018-03-23T13:35:36.634Z,13.40
2018-03-23T13:38:04.900Z,14.53
2018-03-23T13:40:32.634Z,14.83
2018-03-23T13:43:00.241Z,13.67
2018-03-23T13:45:28.623Z,17.43
2018-03-23T13:47:57.064Z,16.73
2018-03-23T13:50:24.664Z,18.57
2018-03-23T13:52:53.092Z,14.43
2018-03-23T13:55:20.727Z,18.57
2018-03-23T13:57:48.346Z,15.33
2018-03-23T14:00:21.766Z,16.87
2018-03-23T14:02:50.161Z,16.67
2018-03-23T14:05:17.799Z,16.87
2018-03-23T14:07:46.167Z,15.60
2018-03-23T14:10:14.557Z,14.57
2018-03-23T14:12:42.224Z,19.37
2018-03-23T14:15:10.599Z,16.43
2018-03-23T14:17:39.020Z,18.47
2018-03-23T14:20:06.638Z,19.07
2018-03-23T14:22:34.997Z,16.57
2018-03-23T14:25:02.625Z,18.37
2018-03-23T14:27:30.274Z,17.03
2018-03-23T14:29:57.880Z,15.40
2018-03-23T14:32:26.419Z,18.23
2018-03-23T14:34:54.093Z,18.77
2018-03-23T14:37:21.750Z,24.27
2018-03-23T14:39:49.371Z,17.47
2018-03-23T14:42:16.965Z,16.30
2018-03-23T14:44:44.629Z,18.20
2018-03-23T14:47:12.229Z,17.77
2018-03-23T14:49:40.595Z,21.63
2018-03-23T14:52:08.943Z,26.07
2018-03-23T14:54:36.544Z,23.57
2018-03-23T14:57:05.077Z,24.53
2018-03-23T14:59:35.251Z,22.43
2018-03-23T15:02:03.621Z,23.37
2018-03-23T15:04:31.987Z,24.77
2018-03-23T15:06:59.657Z,21.27
2018-03-23T15:09:28.063Z,20.47
2018-03-23T15:11:56.293Z,24.70
2018-03-23T15:14:23.920Z,21.47
2018-03-23T15:16:51.587Z,22.50
2018-03-23T15:19:19.179Z,21.03
2018-03-23T15:21:46.839Z,25.03
2018-03-23T15:24:14.461Z,22.10
2018-03-23T15:26:42.090Z,22.53
2018-03-23T15:29:09.709Z,22.37
2018-03-23T15:31:37.411Z,22.00
2018-03-23T15:34:05.067Z,23.70
2018-03-23T15:36:33.442Z,25.63
2018-03-23T15:39:01.893Z,22.53
2018-03-23T15:41:29.638Z,25.27
2018-03-23T15:43:57.262Z,28.97
2018-03-23T15:46:24.902Z,23.33
2018-03-23T15:48:53.307Z,26.07
2018-03-23T15:51:20.992Z,23.80
2018-03-23T15:53:48.620Z,24.63
2018-03-23T15:56:16.405Z,24.20
2018-03-23T15:58:44.022Z,25.93
2018-03-23T16:01:12.424Z,30.87
2018-03-23T16:03:40.064Z,29.03
2018-03-23T16:06:08.437Z,22.60
2018-03-23T16:08:36.845Z,34.97
2018-03-23T16:11:04.483Z,22.33
2018-03-23T16:13:32.861Z,20.37
2018-03-23T16:16:01.370Z,29.17
2018-03-23T16:18:29.147Z,27.13
2018-03-23T16:20:56.797Z,24.37
2018-03-23T16:23:24.532Z,32.87
2018-03-23T16:25:53.522Z,25.37
2018-03-23T16:28:21.896Z,31.00
2018-03-23T16:30:50.484Z,28.40
2018-03-23T16:33:18.842Z,25.90
2018-03-23T16:35:46.460Z,27.53
2018-03-23T16:38:14.121Z,27.60
2018-03-23T16:40:41.815Z,28.83
2018-03-23T16:43:09.444Z,29.63
2018-03-23T16:45:37.145Z,25.60
2018-03-23T16:48:04.738Z,25.90
2018-03-23T16:50:32.447Z,27.83
2018-03-23T16:53:00.053Z,28.50
2018-03-23T16:55:28.501Z,25.87
2018-03-23T16:57:56.106Z,27.47
2018-03-23T17:00:23.713Z,29.47
2018-03-23T17:02:51.338Z,30.17
2018-03-23T17:05:18.983Z,32.90
2018-03-23T17:07:46.648Z,31.77
2018-03-23T17:10:14.285Z,30.03
2018-03-23T17:12:42.735Z,30.90
2018-03-23T17:15:10.348Z,28.83
2018-03-23T17:17:37.980Z,29.03
2018-03-23T17:20:06.393Z,33.37
2018-03-23T17:22:34.359Z,38.03
2018-03-23T17:25:01.951Z,34.03
2018-03-23T17:27:29.576Z,31.60
2018-03-23T17:29:57.167Z,27.47
2018-03-23T17:32:24.814Z,30.80
2018-03-23T17:34:52.398Z,27.07
2018-03-23T17:37:20.054Z,28.33
2018-03-23T17:39:47.714Z,31.57
2018-03-23T17:42:15.349Z,31.80
2018-03-23T17:44:42.946Z,25.80
2018-03-23T17:47:10.650Z,31.00
2018-03-23T17:49:38.244Z,28.07
2018-03-23T17:52:05.832Z,26.13
2018-03-23T17:54:33.482Z,33.07
2018-03-23T17:57:01.100Z,29.87
2018-03-23T17:59:28.746Z,31.27
2018-03-23T18:01:57.199Z,29.13
2018-03-23T18:04:25.898Z,31.37
2018-03-23T18:06:54.410Z,35.30
2018-03-23T18:09:22.009Z,29.00
2018-03-23T18:11:49.705Z,34.33
2018-03-23T18:14:18.184Z,28.17
2018-03-23T18:16:46.568Z,27.83
2018-03-23T18:19:14.994Z,28.43
2018-03-23T18:21:42.871Z,32.40
2018-03-23T18:24:10.471Z,28.97
2018-03-23T18:26:38.873Z,29.80
2018-03-23T18:29:06.595Z,26.77
2018-03-23T18:31:34.196Z,29.80
2018-03-23T18:34:01.795Z,26.30
2018-03-23T18:36:29.418Z,28.77
2018-03-23T18:38:57.014Z,29.60
2018-03-23T18:41:24.641Z,29.77
2018-03-23T18:43:52.262Z,27.40
2018-03-23T18:46:20.656Z,29.37
2018-03-23T18:48:48.296Z,29.13
2018-03-23T18:51:16.649Z,25.67
2018-03-23T18:53:44.245Z,28.37
2018-03-23T18:56:12.632Z,26.27
2018-03-23T18:58:40.247Z,27.03
2018-03-23T19:01:08.006Z,27.50
2018-03-23T19:03:35.659Z,27.17
2018-03-23T19:06:03.340Z,25.83
2018-03-23T19:08:31.656Z,26.90
2018-03-23T19:10:59.297Z,25.83
2018-03-23T19:13:27.682Z,25.70
2018-03-23T19:15:56.114Z,25.77
2018-03-23T19:18:23.722Z,25.97
2018-03-23T19:20:52.121Z,28.17
2018-03-23T19:23:19.766Z,25.93
2018-03-23T19:25:48.139Z,27.03
2018-03-23T19:28:16.550Z,27.70
2018-03-23T19:30:44.199Z,28.03
2018-03-23T19:33:12.747Z,29.03
2018-03-23T19:35:41.228Z,27.40
2018-03-23T19:38:09.707Z,27.67
2018-03-23T19:40:38.089Z,31.20
2018-03-23T19:43:06.540Z,29.10
2018-03-23T19:45:34.158Z,27.60
2018-03-23T19:48:01.788Z,32.93
2018-03-23T19:50:30.235Z,31.30
2018-03-23T19:52:57.841Z,30.73
2018-03-23T19:55:26.423Z,30.53
2018-03-23T19:57:54.930Z,33.60
2018-03-23T20:00:22.536Z,30.07
2018-03-23T20:02:50.972Z,32.40
2018-03-23T20:05:19.388Z,33.40
2018-03-23T20:07:48.445Z,32.73
2018-03-23T20:10:16.008Z,34.10
2018-03-23T20:12:43.705Z,34.57
2018-03-23T20:15:11.319Z,36.13
2018-03-23T20:20:51.010Z,32.40
2018-03-23T20:23:19.436Z,29.93
2018-03-23T20:25:47.140Z,32.97
2018-03-23T20:28:21.145Z,36.67
2018-03-23T20:30:48.822Z,32.30
2018-03-23T20:33:16.446Z,34.97
2018-03-23T20:35:44.939Z,32.50
2018-03-23T20:38:12.662Z,33.13
2018-03-23T20:40:41.060Z,35.00
2018-03-23T20:43:09.151Z,30.93
2018-03-23T20:45:36.820Z,33.73
2018-03-23T20:48:04.456Z,34.93
2018-03-23T20:50:32.053Z,34.67
2018-03-23T20:52:59.717Z,35.40
2018-03-23T20:55:27.339Z,36.70
2018-03-23T20:57:54.937Z,35.40
2018-03-23T21:00:22.594Z,38.30
2018-03-23T21:02:50.282Z,38.33
2018-03-23T21:05:19.540Z,36.67
2018-03-23T21:07:47.188Z,42.37
2018-03-23T21:10:14.780Z,35.03
2018-03-23T21:12:42.436Z,37.63
2018-03-23T21:15:10.073Z,38.23
2018-03-23T21:17:37.762Z,39.80
2018-03-23T21:20:05.404Z,40.63
2018-03-23T21:22:33.059Z,41.47
2018-03-23T21:25:00.668Z,39.80
2018-03-23T21:27:29.103Z,37.13
2018-03-23T21:29:57.526Z,41.13
2018-03-23T21:32:25.148Z,37.77
2018-03-23T21:34:52.737Z,36.57
2018-03-23T21:37:20.363Z,37.93
2018-03-23T21:39:48.056Z,41.23
2018-03-23T21:42:15.686Z,34.80
2018-03-23T21:44:43.376Z,43.37
2018-03-23T21:47:11.055Z,43.90
2018-03-23T21:49:39.439Z,38.30
2018-03-23T21:52:07.913Z,40.07
2018-03-23T21:54:35.615Z,40.67
2018-03-23T21:57:03.230Z,46.03
2018-03-23T21:59:31.678Z,39.20
2018-03-23T22:01:59.353Z,39.93
2018-03-23T22:04:27.010Z,46.13
2018-03-23T22:06:54.684Z,42.07
2018-03-23T22:09:23.093Z,42.37
2018-03-23T22:11:51.451Z,39.30
2018-03-23T22:14:19.043Z,37.33
2018-03-23T22:16:46.687Z,37.97
2018-03-23T22:19:15.056Z,34.13
2018-03-23T22:21:43.456Z,32.33
2018-03-23T22:24:11.074Z,29.33
2018-03-23T22:26:38.712Z,36.30
2018-03-23T22:29:06.374Z,32.63
2018-03-23T22:31:34.419Z,34.17
2018-03-23T22:34:02.059Z,32.47
2018-03-23T22:36:30.414Z,29.93
2018-03-23T22:38:58.043Z,29.93
2018-03-23T22:41:26.258Z,32.83
2018-03-23T22:43:53.943Z,28.17
2018-03-23T22:46:21.559Z,33.53
2018-03-23T22:48:49.152Z,30.27
2018-03-23T22:51:17.545Z,29.40
2018-03-23T22:53:45.172Z,31.33
2018-03-23T22:56:18.735Z,30.53
2018-03-23T22:58:46.467Z,26.07
2018-03-23T23:01:14.137Z,29.43
2018-03-23T23:03:41.886Z,30.10
2018-03-23T23:06:10.215Z,26.40
2018-03-23T23:08:37.903Z,26.57
2018-03-23T23:11:05.616Z,30.67
2018-03-23T23:13:33.249Z,26.23
2018-03-23T23:16:00.889Z,27.60
2018-03-23T23:18:29.259Z,27.80
2018-03-23T23:20:57.655Z,28.30
2018-03-23T23:23:26.886Z,27.70
2018-03-23T23:25:54.536Z,28.27
2018-03-23T23:28:22.269Z,30.30
2018-03-23T23:30:50.638Z,27.70
2018-03-23T23:33:19.016Z,27.27
2018-03-23T23:35:47.430Z,28.80
2018-03-23T23:38:15.043Z,26.67
2018-03-23T23:40:42.634Z,26.10
2018-03-23T23:43:10.266Z,28.83
2018-03-23T23:45:37.915Z,28.20
2018-03-23T23:48:05.609Z,27.23
2018-03-23T23:50:34.015Z,27.13
2018-03-23T23:53:01.684Z,23.80
2018-03-23T23:55:29.297Z,24.63
2018-03-23T23:57:57.077Z,25.87
